Time;durP1;ratioP1;P1;durP2;ratioP2;P2;SDS_P1;SDS_P2;PMS_P1;PMS_P2;Temp;Humidity;BMP_temperature;BMP_pressure;BME280_temperature;BME280_humidity;BME280_pressure;Samples;Min_cycle;Max_cycle;Signal;HPM_P1;HPM_P2
2022/04/11 00:01:56;;;;;;;13.27;6.28;;;;;;;-1.26;100.00;95881.31;5090841;28;20079;-75
2022/04/11 00:04:21;;;;;;;13.93;6.50;;;;;;;-1.21;100.00;95883.31;5110248;28;20035;-75
2022/04/11 00:06:47;;;;;;;12.60;6.05;;;;;;;-1.19;100.00;95880.53;5091584;28;20489;-74
2022/04/11 00:09:12;;;;;;;12.00;5.63;;;;;;;-1.26;100.00;95870.97;5091888;28;20043;-76
2022/04/11 00:11:38;;;;;;;11.48;5.57;;;;;;;-1.14;100.00;95873.06;5091342;28;20036;-76
2022/04/11 00:14:04;;;;;;;9.63;5.10;;;;;;;-1.13;100.00;95865.13;5091673;28;20040;-77
2022/04/11 00:16:30;;;;;;;11.35;5.18;;;;;;;-1.12;100.00;95860.75;5085959;28;20055;-76
2022/04/11 00:18:56;;;;;;;9.05;5.03;;;;;;;-1.17;100.00;95868.25;5097864;28;20043;-76
2022/04/11 00:21:22;;;;;;;11.38;4.88;;;;;;;-1.19;100.00;95859.88;5105525;28;20040;-75
2022/04/11 00:23:47;;;;;;;10.73;5.00;;;;;;;-1.22;100.00;95861.88;5098566;28;20498;-75
2022/04/11 00:26:13;;;;;;;10.95;5.32;;;;;;;-1.25;100.00;95857.09;5093159;28;20074;-76
2022/04/11 00:28:38;;;;;;;9.15;5.07;;;;;;;-1.32;100.00;95860.56;5094865;28;20498;-74
2022/04/11 00:31:04;;;;;;;10.30;4.93;;;;;;;-1.33;100.00;95859.00;5073002;28;20048;-73
2022/04/11 00:33:29;;;;;;;11.10;5.10;;;;;;;-1.38;100.00;95861.31;5091192;28;20056;-74
2022/04/11 00:35:55;;;;;;;9.13;5.00;;;;;;;-1.42;100.00;95853.94;5082561;28;20043;-73
2022/04/11 00:38:20;;;;;;;9.35;5.20;;;;;;;-1.41;100.00;95857.31;5109649;28;20043;-73
2022/04/11 00:40:46;;;;;;;15.57;5.93;;;;;;;-1.64;100.00;95863.50;5089010;28;20075;-73
2022/04/11 00:43:30;;;;;;;14.15;5.30;;;;;;;-1.59;100.00;95861.13;5089425;28;20497;-74
2022/04/11 00:45:56;;;;;;;13.95;5.97;;;;;;;-1.59;100.00;95861.13;5094206;28;20056;-74
2022/04/11 00:48:22;;;;;;;9.50;5.50;;;;;;;-1.63;100.00;95854.75;5111539;28;20040;-74
2022/04/11 00:50:48;;;;;;;14.32;5.80;;;;;;;-1.60;100.00;95858.75;5108713;28;20402;-74
2022/04/11 00:53:14;;;;;;;10.82;5.35;;;;;;;-1.60;100.00;95853.59;5102509;28;20044;-73
2022/04/11 00:55:39;;;;;;;9.38;5.78;;;;;;;-1.64;100.00;95863.50;5088450;28;20058;-73
2022/04/11 00:58:05;;;;;;;10.10;5.43;;;;;;;-1.81;100.00;95851.78;5107515;28;20135;-74
2022/04/11 01:00:31;;;;;;;9.65;5.40;;;;;;;-1.73;100.00;95856.03;5098105;28;20054;-74
2022/04/11 01:02:56;;;;;;;10.70;5.68;;;;;;;-1.73;100.00;95862.00;5102676;28;20046;-74
2022/04/11 01:05:22;;;;;;;9.80;5.47;;;;;;;-1.65;100.00;95861.06;5099168;28;20409;-74
2022/04/11 01:07:51;;;;;;;12.13;5.40;;;;;;;-1.69;100.00;95860.66;5110346;28;20035;-74
2022/04/11 01:10:16;;;;;;;11.38;5.30;;;;;;;-1.60;100.00;95864.69;5082670;28;20040;-74
2022/04/11 01:12:42;;;;;;;9.50;5.05;;;;;;;-1.63;100.00;95859.91;5090196;28;20048;-73
2022/04/11 01:15:08;;;;;;;10.85;5.70;;;;;;;-1.68;100.00;95862.25;5091384;28;20448;-74
2022/04/11 01:17:35;;;;;;;10.27;5.60;;;;;;;-1.63;100.00;95853.94;5102890;28;20047;-72
2022/04/11 01:20:12;;;;;;;10.48;5.25;;;;;;;-1.69;100.00;95855.50;5107220;28;20111;-73
2022/04/11 01:22:42;;;;;;;11.10;5.00;;;;;;;-1.78;100.00;95852.22;5096909;28;20436;-73
2022/04/11 01:25:10;;;;;;;11.35;5.13;;;;;;;-1.82;100.00;95857.94;5085731;28;20036;-74
2022/04/11 01:27:37;;;;;;;11.15;5.07;;;;;;;-1.81;100.00;95862.09;5072821;28;20090;-74
2022/04/11 01:30:04;;;;;;;10.02;5.22;;;;;;;-1.85;100.00;95860.84;5103999;28;20036;-73
2022/04/11 01:32:30;;;;;;;10.98;5.22;;;;;;;-1.80;100.00;95858.53;5103476;28;20086;-73
2022/04/11 01:34:56;;;;;;;10.57;5.03;;;;;;;-1.80;100.00;95858.53;5110478;28;20048;-74
2022/04/11 01:37:23;;;;;;;10.20;5.00;;;;;;;-1.81;100.00;95856.94;5105834;28;20031;-73
2022/04/11 01:39:48;;;;;;;8.90;4.55;;;;;;;-1.78;100.00;95854.00;5100072;28;20036;-74
2022/04/11 01:42:14;;;;;;;10.02;4.72;;;;;;;-1.79;100.00;95852.41;5103305;28;20040;-73
2022/04/11 01:44:39;;;;;;;11.88;5.00;;;;;;;-1.80;100.00;95853.38;5098906;28;20097;-73
2022/04/11 01:47:05;;;;;;;8.45;4.75;;;;;;;-1.83;100.00;95853.75;5089668;28;20051;-73
2022/04/11 01:49:30;;;;;;;10.77;4.85;;;;;;;-1.82;100.00;95851.00;5095802;28;20064;-73
2022/04/11 01:51:56;;;;;;;11.15;5.32;;;;;;;-1.77;100.00;95847.84;5109612;28;20040;-74
2022/04/11 01:54:22;;;;;;;12.05;4.85;;;;;;;-1.72;100.00;95850.69;5100164;28;20042;-73
2022/04/11 01:56:47;;;;;;;8.35;4.63;;;;;;;-1.80;100.00;95846.44;5091694;28;20042;-74
2022/04/11 01:59:14;;;;;;;8.95;5.00;;;;;;;-1.71;100.00;95849.72;5089303;28;20033;-74
2022/04/11 02:01:40;;;;;;;9.48;5.20;;;;;;;-1.78;100.00;95851.41;5098131;28;20047;-74
2022/04/11 02:04:06;;;;;;;10.55;4.90;;;;;;;-1.77;100.00;95848.66;5081837;28;20084;-73
2022/04/11 02:06:32;;;;;;;8.93;4.80;;;;;;;-1.82;100.00;95839.88;5089573;28;20607;-73
2022/04/11 02:08:57;;;;;;;9.95;5.07;;;;;;;-1.81;100.00;95846.63;5089325;28;20044;-74
2022/04/11 02:11:23;;;;;;;9.43;4.43;;;;;;;-1.85;100.00;95845.38;5089435;28;20512;-74
2022/04/11 02:13:48;;;;;;;8.77;4.53;;;;;;;-1.82;100.00;95839.88;5096900;28;20562;-74
2022/04/11 02:16:14;;;;;;;8.30;4.82;;;;;;;-1.77;100.00;95837.53;5096096;28;20035;-74
2022/04/11 02:18:39;;;;;;;12.15;5.20;;;;;;;-1.90;100.00;95827.09;5107452;28;20043;-75
2022/04/11 02:21:05;;;;;;;13.60;5.80;;;;;;;-2.27;100.00;95822.72;5108963;28;20657;-75
2022/04/11 02:23:30;;;;;;;8.85;4.32;;;;;;;-2.10;100.00;95822.50;5106144;28;20043;-75
2022/04/11 02:25:56;;;;;;;11.85;5.32;;;;;;;-1.95;100.00;95823.28;5087662;28;20047;-74
2022/04/11 02:28:22;;;;;;;8.25;4.70;;;;;;;-1.98;100.00;95821.06;5090713;28;20043;-74
2022/04/11 02:30:47;;;;;;;8.95;5.20;;;;;;;-2.04;100.00;95816.66;5090594;28;20416;-75
2022/04/11 02:33:13;;;;;;;7.95;4.63;;;;;;;-2.06;100.00;95816.00;5098789;28;20727;-74
2022/04/11 02:35:40;;;;;;;10.35;4.90;;;;;;;-2.04;100.00;95811.47;5078794;28;20047;-75
2022/04/11 02:38:06;;;;;;;12.60;4.60;;;;;;;-2.03;100.00;95807.13;5071131;28;20048;-74
2022/04/11 02:40:32;;;;;;;7.90;4.82;;;;;;;-2.02;100.00;95814.66;5089166;28;20051;-74
2022/04/11 02:42:57;;;;;;;7.93;4.65;;;;;;;-2.00;100.00;95807.53;5098085;28;20044;-74
2022/04/11 02:45:23;;;;;;;8.13;4.40;;;;;;;-1.98;100.00;95805.59;5104927;28;20039;-74
2022/04/11 02:47:49;;;;;;;7.15;4.28;;;;;;;-1.92;100.00;95799.69;5098711;28;20482;-74
2022/04/11 02:50:14;;;;;;;7.10;4.30;;;;;;;-1.93;100.00;95805.03;5101871;28;20459;-76
2022/04/11 02:52:40;;;;;;;10.63;4.93;;;;;;;-1.97;100.00;95804.63;5105117;28;20051;-75
2022/04/11 02:55:06;;;;;;;8.50;4.53;;;;;;;-2.15;100.00;95799.06;5111529;28;20043;-74
2022/04/11 02:57:32;;;;;;;10.00;4.97;;;;;;;-2.26;100.00;95797.75;5089947;28;20067;-74
2022/04/11 02:59:57;;;;;;;8.57;4.40;;;;;;;-2.06;100.00;95803.13;5085071;28;20070;-74
2022/04/11 03:02:24;;;;;;;9.70;4.60;;;;;;;-2.01;100.00;95795.63;5102244;28;20066;-74
2022/04/11 03:04:49;;;;;;;10.93;4.25;;;;;;;-2.09;100.00;95790.59;5092637;28;20047;-73
2022/04/11 03:07:14;;;;;;;8.05;4.40;;;;;;;-2.12;100.00;95793.53;5093166;28;20044;-73
2022/04/11 03:09:40;;;;;;;10.68;4.40;;;;;;;-2.11;100.00;95790.00;5101456;28;20062;-73
2022/04/11 03:12:06;;;;;;;9.70;4.38;;;;;;;-2.15;100.00;95788.75;5086505;28;20169;-73
2022/04/11 03:14:32;;;;;;;10.98;4.47;;;;;;;-2.13;100.00;95797.88;5084085;28;20040;-74
2022/04/11 03:16:58;;;;;;;7.68;4.13;;;;;;;-2.10;100.00;95791.56;5087196;28;20036;-73
2022/04/11 03:19:24;;;;;;;7.72;4.30;;;;;;;-2.05;100.00;95794.41;5093021;28;20040;-75
2022/04/11 03:21:49;;;;;;;7.65;4.13;;;;;;;-1.91;100.00;95795.34;5092442;28;20031;-73
2022/04/11 03:24:15;;;;;;;7.65;4.25;;;;;;;-1.97;100.00;95781.41;5093095;28;20423;-75
2022/04/11 03:26:40;;;;;;;7.13;4.30;;;;;;;-2.15;100.00;95786.16;5096114;28;20044;-75
2022/04/11 03:29:06;;;;;;;10.88;4.70;;;;;;;-2.25;100.00;95783.88;5101718;28;20046;-75
2022/04/11 03:31:32;;;;;;;7.50;4.03;;;;;;;-2.12;100.00;95783.22;5107879;28;20465;-75
2022/04/11 03:33:58;;;;;;;9.15;4.43;;;;;;;-2.16;100.00;95787.94;5092141;28;20046;-75
2022/04/11 03:36:24;;;;;;;9.98;4.55;;;;;;;-2.16;100.00;95787.13;5108542;28;20451;-75
2022/04/11 03:38:50;;;;;;;9.85;4.40;;;;;;;-2.23;100.00;95783.69;5088581;28;20044;-73
2022/04/11 03:41:16;;;;;;;7.15;4.00;;;;;;;-2.22;100.00;95782.72;5111561;28;20054;-75
2022/04/11 03:43:41;;;;;;;8.68;4.03;;;;;;;-2.15;100.00;95778.44;5110228;28;20078;-73
2022/04/11 03:46:07;;;;;;;7.57;4.10;;;;;;;-2.24;100.00;95774.34;5111749;28;20050;-73
2022/04/11 03:48:32;;;;;;;11.10;4.32;;;;;;;-2.24;100.00;95774.34;5110800;28;20492;-73
2022/04/11 03:50:58;;;;;;;8.38;4.03;;;;;;;-2.15;100.00;95778.44;5106113;28;20069;-73
2022/04/11 03:53:23;;;;;;;7.40;3.95;;;;;;;-2.12;100.00;95778.06;5100511;28;20564;-73
2022/04/11 03:55:49;;;;;;;7.70;3.88;;;;;;;-2.14;100.00;95780.00;5100513;28;20044;-73
2022/04/11 03:58:15;;;;;;;8.73;4.38;;;;;;;-2.18;100.00;95779.59;5111692;28;20059;-73
2022/04/11 04:00:41;;;;;;;7.15;4.30;;;;;;;-2.19;100.00;95777.19;5099315;28;20090;-73
2022/04/11 04:03:08;;;;;;;6.47;3.95;;;;;;;-2.07;100.00;95767.19;5091085;28;20047;-73
2022/04/11 04:05:39;;;;;;;7.20;4.10;;;;;;;-2.19;100.00;95766.88;5078552;28;20044;-75
2022/04/11 04:08:05;;;;;;;8.75;3.72;;;;;;;-2.18;100.00;95758.19;5091839;28;20101;-73
2022/04/11 04:10:30;;;;;;;6.80;3.78;;;;;;;-2.16;100.00;95761.34;5097332;28;20518;-73
2022/04/11 04:13:00;;;;;;;9.65;4.18;;;;;;;-2.19;100.00;95756.56;5110211;28;20101;-75
2022/04/11 04:15:26;;;;;;;7.53;3.80;;;;;;;-2.21;100.00;95758.50;5106389;28;20043;-75
2022/04/11 04:17:52;;;;;;;12.10;4.70;;;;;;;-2.27;100.00;95750.53;5099014;28;20169;-75
2022/04/11 04:20:18;;;;;;;15.05;4.38;;;;;;;-2.25;100.00;95752.94;5111159;28;20032;-75
2022/04/11 04:22:44;;;;;;;8.38;4.57;;;;;;;-2.32;100.00;95742.56;5099614;28;20044;-76
2022/04/11 04:25:10;;;;;;;7.88;3.83;;;;;;;-2.24;100.00;95743.41;5091431;28;20161;-75
2022/04/11 04:27:35;;;;;;;9.27;3.47;;;;;;;-2.24;100.00;95735.69;5098451;28;20118;-75
2022/04/11 04:30:01;;;;;;;6.55;3.75;;;;;;;-2.22;100.00;95736.31;5104412;28;20086;-76
2022/04/11 04:32:27;;;;;;;9.50;4.50;;;;;;;-2.29;100.00;95731.88;5091110;28;20101;-76
2022/04/11 04:34:52;;;;;;;6.88;3.88;;;;;;;-2.33;100.00;95728.09;5094855;28;20067;-75
2022/04/11 04:37:18;;;;;;;8.00;4.10;;;;;;;-2.35;100.00;95727.44;5104582;28;20039;-76
2022/04/11 04:39:43;;;;;;;9.10;3.92;;;;;;;-2.24;100.00;95733.09;5110815;28;20044;-76
2022/04/11 04:42:09;;;;;;;7.63;3.92;;;;;;;-2.21;100.00;95737.88;5102169;28;20051;-75
2022/04/11 04:44:41;;;;;;;7.05;4.03;;;;;;;-2.30;100.00;95730.28;5093648;28;20059;-75
2022/04/11 04:47:07;;;;;;;8.00;4.38;;;;;;;-2.29;100.00;95733.66;5103518;28;20050;-76
2022/04/11 04:49:33;;;;;;;7.30;4.53;;;;;;;-2.27;100.00;95737.66;5108874;28;20047;-76
2022/04/11 04:51:59;;;;;;;13.27;4.50;;;;;;;-2.30;100.00;95726.91;5090831;28;20044;-76
2022/04/11 04:54:24;;;;;;;7.03;3.97;;;;;;;-2.29;100.00;95726.72;5090875;28;20048;-75
2022/04/11 04:56:50;;;;;;;8.30;4.40;;;;;;;-2.25;100.00;95731.53;5094483;28;20181;-75
2022/04/11 04:59:16;;;;;;;9.90;4.03;;;;;;;-2.18;100.00;95732.38;5094653;28;20092;-76
2022/04/11 05:01:41;;;;;;;10.93;4.15;;;;;;;-2.14;100.00;95734.41;5099643;28;20390;-76
2022/04/11 05:04:07;;;;;;;6.78;4.13;;;;;;;-2.16;100.00;95725.25;5104607;28;20505;-76
2022/04/11 05:06:33;;;;;;;7.38;3.72;;;;;;;-2.09;100.00;95728.69;5104766;28;20066;-76
2022/04/11 05:08:59;;;;;;;7.78;3.90;;;;;;;-2.03;100.00;95730.53;5091473;28;20168;-76
2022/04/11 05:11:25;;;;;;;7.07;4.13;;;;;;;-2.00;100.00;95725.00;5093852;28;20122;-76
2022/04/11 05:13:51;;;;;;;7.38;3.78;;;;;;;-1.90;100.00;95729.06;5107815;28;20047;-76
2022/04/11 05:16:18;;;;;;;9.85;4.05;;;;;;;-1.87;100.00;95733.84;5095752;28;20058;-76
2022/04/11 05:18:44;;;;;;;9.57;4.47;;;;;;;-1.87;100.00;95726.09;5089859;28;20497;-76
2022/04/11 05:21:10;;;;;;;11.38;4.22;;;;;;;-1.82;100.00;95716.03;5110198;28;20474;-73
2022/04/11 05:23:35;;;;;;;7.93;4.45;;;;;;;-1.73;100.00;95714.91;5105576;28;20039;-74
2022/04/11 05:26:02;;;;;;;7.80;4.60;;;;;;;-1.71;100.00;95712.16;5098190;28;20659;-74
2022/04/11 05:28:27;;;;;;;11.98;4.80;;;;;;;-1.59;100.00;95710.66;5090245;28;20097;-73
2022/04/11 05:30:53;;;;;;;10.57;4.47;;;;;;;-1.55;100.00;95711.88;5074126;28;20051;-74
2022/04/11 05:33:19;;;;;;;8.85;4.70;;;;;;;-1.45;100.00;95716.69;5107511;28;20039;-72
2022/04/11 05:35:44;;;;;;;7.40;4.32;;;;;;;-1.37;100.00;95710.59;5103242;28;20043;-71
2022/04/11 05:38:10;;;;;;;7.40;4.35;;;;;;;-1.31;100.00;95708.03;5110686;28;20048;-74
2022/04/11 05:40:35;;;;;;;8.88;4.40;;;;;;;-1.22;100.00;95717.25;5092098;28;20115;-72
2022/04/11 05:43:03;;;;;;;7.28;4.10;;;;;;;-1.25;100.00;95712.47;5104718;28;20094;-72
2022/04/11 05:45:28;;;;;;;10.10;4.75;;;;;;;-1.05;100.00;95711.75;5100685;28;20537;-73
2022/04/11 05:47:54;;;;;;;10.77;4.80;;;;;;;-1.08;100.00;95712.16;5104121;28;20176;-74
2022/04/11 05:50:19;;;;;;;10.27;4.82;;;;;;;-0.95;100.00;95706.25;5097460;28;20505;-73
2022/04/11 05:52:45;;;;;;;10.32;5.07;;;;;;;-0.79;100.00;95715.47;5095989;28;20036;-73
2022/04/11 05:55:11;;;;;;;10.80;5.15;;;;;;;-0.67;100.00;95719.09;5092370;28;20040;-74
2022/04/11 05:57:36;;;;;;;9.75;5.28;;;;;;;-0.71;100.00;95715.31;5091977;28;20456;-74
2022/04/11 06:00:03;;;;;;;10.93;5.35;;;;;;;-0.75;100.00;95716.69;5102140;28;20032;-75
2022/04/11 06:02:28;;;;;;;12.00;4.97;;;;;;;-0.54;100.00;95719.16;5093920;28;20485;-74
2022/04/11 06:04:54;;;;;;;9.40;5.03;;;;;;;-0.50;100.00;95723.94;5071674;28;20085;-75
2022/04/11 06:07:21;;;;;;;11.60;4.75;;;;;;;-0.47;100.00;95723.56;5092647;28;20044;-74
2022/04/11 06:09:48;;;;;;;8.45;5.30;;;;;;;-0.47;100.00;95723.56;5079603;28;20378;-74
2022/04/11 06:12:13;;;;;;;9.63;5.00;;;;;;;-0.45;100.00;95721.56;5100153;28;20044;-73
2022/04/11 06:14:39;;;;;;;13.45;5.82;;;;;;;-0.39;100.00;95725.94;5099510;28;20063;-77
2022/04/11 06:17:04;;;;;;;10.30;5.05;;;;;;;-0.30;100.00;95724.78;5082314;28;20066;-75
2022/04/11 06:19:30;;;;;;;11.23;5.75;;;;;;;-0.31;100.00;95712.84;5097149;27;20040;-75
2022/04/11 06:21:55;;;;;;;11.45;5.72;;;;;;;-0.17;100.00;95713.69;5108814;28;20048;-75
2022/04/11 06:24:21;;;;;;;9.80;5.30;;;;;;;-0.09;100.00;95717.88;5085946;28;20050;-75
2022/04/11 06:26:46;;;;;;;11.48;5.63;;;;;;;-0.10;100.00;95718.84;5079081;28;20643;-75
2022/04/11 06:29:12;;;;;;;11.10;5.70;;;;;;;-0.10;100.00;95716.25;5092135;28;20036;-74
2022/04/11 06:31:37;;;;;;;12.50;5.97;;;;;;;-0.13;100.00;95724.41;5109245;28;20043;-73
2022/04/11 06:34:03;;;;;;;11.70;5.97;;;;;;;0.06;100.00;95723.66;5107160;28;20047;-76
2022/04/11 06:36:28;;;;;;;9.13;5.13;;;;;;;0.23;100.00;95720.69;5088520;28;20110;-74
2022/04/11 06:38:54;;;;;;;9.57;5.70;;;;;;;0.24;100.00;95719.69;5101950;28;20044;-75
2022/04/11 06:41:20;;;;;;;10.60;5.57;;;;;;;0.23;100.00;95721.50;5095997;28;20534;-75
2022/04/11 06:43:45;;;;;;;11.80;6.05;;;;;;;0.29;100.00;95727.66;5098026;28;20040;-74
2022/04/11 06:46:11;;;;;;;12.57;5.47;;;;;;;0.38;100.00;95721.28;5071415;28;20040;-73
2022/04/11 06:48:36;;;;;;;10.27;5.60;;;;;;;0.38;100.00;95726.47;5107226;28;20062;-75
2022/04/11 06:51:02;;;;;;;12.90;5.50;;;;;;;0.42;100.00;95725.06;5101770;28;20036;-74
2022/04/11 06:53:27;;;;;;;12.85;6.18;;;;;;;0.48;100.00;95721.69;5081951;28;20528;-74
2022/04/11 06:55:53;;;;;;;14.30;6.07;;;;;;;0.43;100.00;95724.09;5106524;28;20043;-74
2022/04/11 06:58:18;;;;;;;12.25;5.68;;;;;;;0.47;100.00;95714.91;5086376;28;20114;-74
2022/04/11 07:00:47;;;;;;;8.57;5.10;;;;;;;0.55;100.00;95718.28;5098317;28;20044;-73
2022/04/11 07:03:12;;;;;;;12.57;6.10;;;;;;;0.69;100.00;95712.91;5094035;28;20529;-72
2022/04/11 07:05:39;;;;;;;10.63;5.18;;;;;;;0.78;100.00;95710.88;5097213;28;20036;-72
2022/04/11 07:08:05;;;;;;;10.68;5.65;;;;;;;0.86;100.00;95718.44;5072456;28;20043;-73
2022/04/11 07:10:31;;;;;;;8.25;4.95;;;;;;;1.01;98.52;95715.63;5092087;28;20043;-74
2022/04/11 07:12:58;;;;;;;9.93;5.07;;;;;;;1.15;98.32;95716.38;5104065;28;20043;-73
2022/04/11 07:15:24;;;;;;;12.93;5.18;;;;;;;1.10;99.82;95718.00;5100765;28;20050;-73
2022/04/11 07:17:50;;;;;;;12.13;5.93;;;;;;;0.94;100.00;95720.03;5089423;28;20036;-74
2022/04/11 07:20:16;;;;;;;9.75;5.00;;;;;;;0.90;100.00;95723.22;5070511;28;20040;-76
2022/04/11 07:22:42;;;;;;;10.25;5.80;;;;;;;1.19;99.88;95717.56;5074325;28;20409;-74
2022/04/11 07:25:09;;;;;;;10.35;5.45;;;;;;;1.42;96.07;95721.44;5099123;28;20040;-74
2022/04/11 07:27:34;;;;;;;10.27;5.72;;;;;;;1.19;98.14;95714.97;5114945;28;20219;-74
2022/04/11 07:29:59;;;;;;;20.67;5.68;;;;;;;1.37;97.58;95713.50;5103746;28;20536;-77
2022/04/11 07:32:25;;;;;;;10.82;5.53;;;;;;;1.48;94.64;95714.66;5110782;28;20101;-74
2022/04/11 07:34:51;;;;;;;9.48;5.50;;;;;;;1.43;96.70;95707.50;5095359;28;20097;-76
2022/04/11 07:37:16;;;;;;;14.95;6.07;;;;;;;1.31;98.88;95716.94;5078614;28;20035;-76
2022/04/11 07:39:42;;;;;;;22.85;5.78;;;;;;;1.38;98.06;95715.09;5102285;27;20043;-74
2022/04/11 07:42:07;;;;;;;12.48;5.50;;;;;;;1.88;93.01;95724.81;5099652;28;20047;-76
2022/04/11 07:44:33;;;;;;;13.13;5.90;;;;;;;1.99;92.68;95718.19;5090520;27;20107;-74
2022/04/11 07:46:58;;;;;;;12.63;5.93;;;;;;;2.30;91.50;95719.16;5107151;28;20035;-74
2022/04/11 07:49:24;;;;;;;12.82;5.75;;;;;;;2.34;92.38;95717.72;5109656;28;20104;-73
2022/04/11 07:51:49;;;;;;;11.98;6.20;;;;;;;2.45;91.71;95724.03;5109332;28;20042;-72
2022/04/11 07:54:15;;;;;;;14.05;5.30;;;;;;;2.65;87.78;95723.88;5082673;28;20040;-72
2022/04/11 07:56:41;;;;;;;12.23;5.75;;;;;;;3.03;88.17;95728.91;5103502;28;20502;-74
2022/04/11 07:59:06;;;;;;;11.55;5.90;;;;;;;3.09;88.68;95724.66;5092797;28;20028;-74
2022/04/11 08:01:32;;;;;;;10.57;5.55;;;;;;;3.29;88.94;95717.44;5101426;28;20458;-74
2022/04/11 08:03:57;;;;;;;11.80;5.63;;;;;;;3.47;86.83;95721.03;5105014;28;20044;-74
2022/04/11 08:06:23;;;;;;;13.80;5.88;;;;;;;3.50;86.53;95727.59;5094813;28;20523;-73
2022/04/11 08:08:48;;;;;;;11.93;5.18;;;;;;;3.64;81.55;95726.41;5113197;28;20044;-73
2022/04/11 08:11:15;;;;;;;12.68;5.90;;;;;;;3.71;86.57;95726.34;5111725;28;20039;-74
2022/04/11 08:13:40;;;;;;;10.13;5.60;;;;;;;3.67;87.80;95719.97;5090740;28;20083;-74
2022/04/11 08:16:06;;;;;;;13.10;5.90;;;;;;;3.91;85.49;95721.66;5095685;28;20048;-73
2022/04/11 08:18:32;;;;;;;11.93;5.55;;;;;;;3.99;80.89;95718.75;5110574;28;20035;-75
2022/04/11 08:20:57;;;;;;;12.77;6.00;;;;;;;4.12;84.02;95717.75;5105493;27;20631;-73
2022/04/11 08:23:23;;;;;;;8.45;5.45;;;;;;;4.41;81.15;95724.94;5104984;28;20028;-73
2022/04/11 08:25:49;;;;;;;15.13;5.93;;;;;;;4.23;80.22;95718.78;5100931;28;20044;-70
2022/04/11 08:28:15;;;;;;;12.50;5.45;;;;;;;4.41;78.68;95719.72;5109317;27;20044;-72
2022/04/11 08:30:41;;;;;;;12.38;5.97;;;;;;;4.55;80.04;95717.72;5100522;27;20046;-70
2022/04/11 08:33:06;;;;;;;9.73;5.20;;;;;;;4.53;77.51;95712.72;5105425;28;20048;-71
2022/04/11 08:35:32;;;;;;;13.43;6.05;;;;;;;4.44;78.48;95709.66;5107155;28;20092;-72
2022/04/11 08:37:58;;;;;;;10.20;5.30;;;;;;;4.49;75.18;95701.16;5112447;27;20040;-71
2022/04/11 08:40:23;;;;;;;11.43;5.68;;;;;;;4.67;79.61;95703.66;5094187;28;20059;-71
2022/04/11 08:42:50;;;;;;;11.52;4.82;;;;;;;4.78;76.75;95693.44;5093776;28;20040;-71
2022/04/11 08:45:19;;;;;;;12.77;5.68;;;;;;;4.75;77.78;95699.13;5110606;27;20043;-72
2022/04/11 08:47:44;;;;;;;11.55;5.35;;;;;;;4.77;77.68;95691.84;5092055;28;20075;-71
2022/04/11 08:50:11;;;;;;;10.57;5.18;;;;;;;4.89;75.82;95699.69;5086899;28;20138;-71
2022/04/11 08:52:38;;;;;;;7.10;4.53;;;;;;;5.29;74.82;95689.28;5102294;28;20048;-71
2022/04/11 08:55:04;;;;;;;11.10;5.10;;;;;;;5.53;73.49;95686.59;5092155;28;20036;-71
2022/04/11 08:57:29;;;;;;;10.25;5.00;;;;;;;5.61;69.98;95691.47;5096292;28;20569;-71
2022/04/11 08:59:55;;;;;;;8.93;4.53;;;;;;;5.85;69.48;95686.16;5103488;27;20088;-70
2022/04/11 09:02:31;;;;;;;10.00;4.57;;;;;;;5.59;71.76;95688.31;5080848;28;20043;-73
2022/04/11 09:04:57;;;;;;;9.65;4.82;;;;;;;5.42;68.57;95687.47;5105495;27;20063;-73
2022/04/11 09:07:23;;;;;;;11.00;4.40;;;;;;;5.43;70.38;95683.81;5106357;28;20690;-75
2022/04/11 09:09:49;;;;;;;8.27;4.70;;;;;;;5.48;68.32;95681.31;5111106;28;20067;-75
2022/04/11 09:12:18;;;;;;;8.48;4.38;;;;;;;5.83;67.29;95693.41;5093026;27;20104;-74
2022/04/11 09:14:51;;;;;;;6.32;3.83;;;;;;;5.94;65.73;95682.13;5102189;28;20086;-73
2022/04/11 09:17:17;;;;;;;10.20;3.88;;;;;;;6.13;66.29;95681.94;5103062;28;20032;-74
2022/04/11 09:19:42;;;;;;;7.35;4.10;;;;;;;6.48;65.43;95680.91;5076726;28;20038;-74
2022/04/11 09:22:08;;;;;;;10.20;4.45;;;;;;;6.54;63.79;95679.97;5110289;28;20459;-75
2022/04/11 09:24:34;;;;;;;7.95;4.38;;;;;;;6.73;62.79;95670.81;5104667;28;20043;-74
2022/04/11 09:26:59;;;;;;;8.45;4.38;;;;;;;6.65;65.79;95673.88;5090720;28;20050;-74
2022/04/11 09:29:27;;;;;;;10.77;4.57;;;;;;;6.48;64.43;95670.44;5097580;28;20036;-74
2022/04/11 09:31:53;;;;;;;8.07;4.50;;;;;;;6.48;64.99;95678.28;5101452;28;20046;-74
2022/04/11 09:34:25;;;;;;;8.15;4.63;;;;;;;6.38;65.53;95674.50;5101292;28;20493;-74
2022/04/11 09:36:55;;;;;;;7.80;4.22;;;;;;;6.37;64.04;95675.53;5090181;28;20517;-74
2022/04/11 09:39:26;;;;;;;7.95;4.22;;;;;;;6.41;65.45;95679.25;5102689;28;20047;-74
2022/04/11 09:41:52;;;;;;;10.73;4.13;;;;;;;6.84;64.56;95686.66;5107830;28;20028;-74
2022/04/11 09:44:21;;;;;;;7.57;3.75;;;;;;;6.83;65.13;95675.41;5101705;28;20043;-74
2022/04/11 09:46:47;;;;;;;7.13;4.20;;;;;;;6.71;64.77;95667.66;5101616;27;20051;-75
2022/04/11 09:49:12;;;;;;;8.60;3.97;;;;;;;6.85;64.72;95670.75;5098724;28;20046;-74
2022/04/11 09:52:12;;;;;;;8.23;3.80;;;;;;;7.00;64.16;95675.38;5110168;28;20032;-74
2022/04/11 09:54:43;;;;;;;7.65;3.90;;;;;;;7.37;63.95;95669.53;5102902;28;20126;-76
2022/04/11 09:57:11;;;;;;;6.22;3.95;;;;;;;7.76;58.71;95672.03;5081931;28;20405;-73
2022/04/11 09:59:37;;;;;;;7.68;3.60;;;;;;;7.84;59.23;95670.00;5102465;28;20070;-74
2022/04/11 10:02:03;;;;;;;5.88;3.60;;;;;;;8.09;58.86;95662.38;5098606;28;20036;-72
2022/04/11 10:04:29;;;;;;;8.30;4.07;;;;;;;7.78;60.67;95662.09;5105772;28;20100;-73
2022/04/11 10:06:55;;;;;;;5.82;3.63;;;;;;;8.08;60.38;95662.63;5108240;27;20485;-74
2022/04/11 10:09:23;;;;;;;7.28;3.55;;;;;;;8.36;59.99;95653.69;5090155;28;20067;-73
2022/04/11 10:11:53;;;;;;;6.90;3.70;;;;;;;8.43;60.18;95664.75;5096136;28;20033;-74
2022/04/11 10:14:25;;;;;;;6.20;3.63;;;;;;;8.73;56.81;95647.66;5093721;28;20499;-75
2022/04/11 10:16:57;;;;;;;8.23;3.65;;;;;;;9.17;58.55;95652.59;5084431;28;20108;-73
2022/04/11 10:19:30;;;;;;;8.05;3.70;;;;;;;9.69;55.64;95647.50;5104821;28;20503;-74
2022/04/11 10:22:02;;;;;;;7.28;3.47;;;;;;;10.43;53.69;95645.50;5089764;28;20057;-74
2022/04/11 10:24:35;;;;;;;6.90;3.40;;;;;;;10.15;51.55;95638.88;5087186;28;20044;-75
2022/04/11 10:27:22;;;;;;;7.22;3.50;;;;;;;10.85;49.68;95641.72;5099899;28;20489;-74
2022/04/11 10:29:55;;;;;;;8.75;4.28;;;;;;;11.34;50.53;95632.31;5085725;28;20035;-72
2022/04/11 10:32:23;;;;;;;6.47;3.60;;;;;;;11.73;48.90;95633.44;5107435;28;20125;-73
2022/04/11 10:35:03;;;;;;;6.38;3.83;;;;;;;12.19;51.97;95630.50;5108472;28;20040;-74
2022/04/11 10:37:31;;;;;;;6.18;3.92;;;;;;;13.16;45.51;95625.34;5089860;28;20047;-72
2022/04/11 10:40:15;;;;;;;8.00;3.78;;;;;;;13.30;46.17;95623.59;5101028;28;20035;-73
2022/04/11 10:43:05;;;;;;;8.30;3.43;;;;;;;12.17;44.46;95616.00;5071714;28;20036;-72
2022/04/11 10:45:35;;;;;;;8.38;4.43;;;;;;;13.01;45.67;95621.03;5087224;28;20299;-72
2022/04/11 10:48:02;;;;;;;8.70;4.13;;;;;;;12.24;45.11;95617.28;5110039;28;20043;-73
2022/04/11 10:50:39;;;;;;;7.22;4.55;;;;;;;13.39;46.02;95617.69;5104869;28;20409;-72
2022/04/11 10:53:09;;;;;;;6.07;4.00;;;;;;;13.67;43.85;95602.78;5106760;28;20508;-71
2022/04/11 10:55:36;;;;;;;7.35;3.45;;;;;;;14.28;45.09;95605.53;5098489;28;20086;-73
2022/04/11 10:58:02;;;;;;;6.53;3.90;;;;;;;13.74;44.85;95602.44;5076678;28;20032;-73
2022/04/11 11:00:32;;;;;;;8.20;4.03;;;;;;;14.31;43.24;95599.66;5098299;28;20519;-74
2022/04/11 11:02:59;;;;;;;12.98;4.95;;;;;;;13.16;45.44;95593.66;5106499;28;20058;-76
2022/04/11 11:05:30;;;;;;;6.45;3.30;;;;;;;13.82;42.36;95589.34;5084151;28;20462;-73
2022/04/11 11:08:09;;;;;;;6.55;3.70;;;;;;;13.00;43.15;95591.19;5091544;28;20914;-74
2022/04/11 11:10:42;;;;;;;5.63;3.80;;;;;;;14.24;41.97;95581.53;5099802;28;20059;-73
2022/04/11 11:13:36;;;;;;;7.07;3.58;;;;;;;14.53;40.30;95591.09;5087935;28;20052;-76
2022/04/11 11:16:07;;;;;;;6.80;3.92;;;;;;;14.78;42.34;95581.13;5110294;28;20043;-74
2022/04/11 11:18:48;;;;;;;5.03;3.30;;;;;;;14.94;42.97;95573.69;5094068;28;20067;-74
2022/04/11 11:21:19;;;;;;;6.35;3.15;;;;;;;14.69;40.96;95573.88;5096819;28;20440;-75
2022/04/11 11:24:10;;;;;;;7.85;3.47;;;;;;;15.44;39.18;95559.66;5109134;28;20160;-75
2022/04/11 11:26:45;;;;;;;5.25;3.13;;;;;;;16.15;37.40;95564.41;5105121;28;20052;-76